sensor_id;sensor_type;location;lat;lon;timestamp;pressure;altitude;pressure_sealevel;temperature;humidity
76766;BME280;65707;52.362;6.588;2023-07-31T00:01:46;100941.34;;;16.14;87.31
76766;BME280;65707;52.362;6.588;2023-07-31T00:04:12;100938.63;;;16.14;87.02
76766;BME280;65707;52.362;6.588;2023-07-31T00:06:39;100943.03;;;16.15;87.24
76766;BME280;65707;52.362;6.588;2023-07-31T00:09:07;100937.19;;;16.11;87.63
76766;BME280;65707;52.362;6.588;2023-07-31T00:11:34;100935.69;;;16.09;87.32
76766;BME280;65707;52.362;6.588;2023-07-31T00:14:01;100932.78;;;16.04;88.01
76766;BME280;65707;52.362;6.588;2023-07-31T00:16:27;100931.88;;;15.90;88.30
76766;BME280;65707;52.362;6.588;2023-07-31T00:18:54;100931.50;;;16.00;88.75
76766;BME280;65707;52.362;6.588;2023-07-31T00:21:21;100924.03;;;16.02;88.74
76766;BME280;65707;52.362;6.588;2023-07-31T00:23:48;100926.91;;;15.94;89.15
76766;BME280;65707;52.362;6.588;2023-07-31T00:26:16;100932.16;;;16.02;89.04
76766;BME280;65707;52.362;6.588;2023-07-31T00:28:42;100940.22;;;15.95;89.68
76766;BME280;65707;52.362;6.588;2023-07-31T00:31:09;100928.78;;;16.00;89.56
76766;BME280;65707;52.362;6.588;2023-07-31T00:33:37;100933.00;;;16.09;89.17
76766;BME280;65707;52.362;6.588;2023-07-31T00:36:04;100922.16;;;16.09;89.44
76766;BME280;65707;52.362;6.588;2023-07-31T00:38:31;100929.88;;;16.05;89.39
76766;BME280;65707;52.362;6.588;2023-07-31T00:40:58;100920.47;;;16.01;90.60
76766;BME280;65707;52.362;6.588;2023-07-31T00:43:26;100913.22;;;16.08;90.15
76766;BME280;65707;52.362;6.588;2023-07-31T00:45:53;100916.50;;;15.97;90.42
76766;BME280;65707;52.362;6.588;2023-07-31T00:48:21;100907.41;;;16.11;90.18
76766;BME280;65707;52.362;6.588;2023-07-31T00:50:48;100908.41;;;16.10;90.25
76766;BME280;65707;52.362;6.588;2023-07-31T00:53:14;100900.31;;;16.04;90.25
76766;BME280;65707;52.362;6.588;2023-07-31T00:55:42;100900.72;;;16.07;90.15
76766;BME280;65707;52.362;6.588;2023-07-31T00:58:09;100886.78;;;16.17;89.98
76766;BME280;65707;52.362;6.588;2023-07-31T01:00:37;100886.94;;;15.96;90.23
76766;BME280;65707;52.362;6.588;2023-07-31T01:03:04;100894.44;;;16.00;90.77
76766;BME280;65707;52.362;6.588;2023-07-31T01:05:38;100894.06;;;16.10;90.64
76766;BME280;65707;52.362;6.588;2023-07-31T01:08:19;100882.84;;;16.19;90.24
76766;BME280;65707;52.362;6.588;2023-07-31T01:11:00;100883.47;;;16.15;90.61
76766;BME280;65707;52.362;6.588;2023-07-31T01:13:31;100875.56;;;16.13;90.95
76766;BME280;65707;52.362;6.588;2023-07-31T01:15:59;100873.66;;;16.14;90.51
76766;BME280;65707;52.362;6.588;2023-07-31T01:18:26;100873.66;;;16.14;90.71
76766;BME280;65707;52.362;6.588;2023-07-31T01:20:58;100881.13;;;16.12;90.79
76766;BME280;65707;52.362;6.588;2023-07-31T01:24:20;100878.25;;;16.20;90.53
76766;BME280;65707;52.362;6.588;2023-07-31T01:26:55;100876.81;;;16.24;90.65
76766;BME280;65707;52.362;6.588;2023-07-31T01:29:31;100870.19;;;16.33;90.14
76766;BME280;65707;52.362;6.588;2023-07-31T01:32:05;100881.00;;;16.33;90.21
76766;BME280;65707;52.362;6.588;2023-07-31T01:34:35;100883.69;;;16.26;90.51
76766;BME280;65707;52.362;6.588;2023-07-31T01:37:03;100882.88;;;16.26;90.50
76766;BME280;65707;52.362;6.588;2023-07-31T01:39:30;100865.41;;;16.35;90.13
76766;BME280;65707;52.362;6.588;2023-07-31T01:41:58;100866.81;;;16.24;90.83
76766;BME280;65707;52.362;6.588;2023-07-31T01:44:25;100862.47;;;16.30;90.84
76766;BME280;65707;52.362;6.588;2023-07-31T01:46:52;100854.53;;;16.28;90.84
76766;BME280;65707;52.362;6.588;2023-07-31T01:49:18;100852.94;;;16.47;90.39
76766;BME280;65707;52.362;6.588;2023-07-31T01:51:45;100855.59;;;16.40;90.63
76766;BME280;65707;52.362;6.588;2023-07-31T01:54:12;100847.25;;;16.42;90.86
76766;BME280;65707;52.362;6.588;2023-07-31T01:56:39;100853.31;;;16.44;90.85
76766;BME280;65707;52.362;6.588;2023-07-31T01:59:07;100845.81;;;16.39;91.18
76766;BME280;65707;52.362;6.588;2023-07-31T02:01:33;100852.06;;;16.33;91.21
76766;BME280;65707;52.362;6.588;2023-07-31T02:04:00;100842.91;;;16.41;91.45
76766;BME280;65707;52.362;6.588;2023-07-31T02:06:28;100839.97;;;16.42;91.49
76766;BME280;65707;52.362;6.588;2023-07-31T02:08:55;100832.69;;;16.43;91.56
76766;BME280;65707;52.362;6.588;2023-07-31T02:11:22;100828.56;;;16.47;91.19
76766;BME280;65707;52.362;6.588;2023-07-31T02:13:49;100812.94;;;16.49;91.50
76766;BME280;65707;52.362;6.588;2023-07-31T02:16:17;100821.22;;;16.41;92.11
76766;BME280;65707;52.362;6.588;2023-07-31T02:18:43;100820.44;;;16.47;92.40
76766;BME280;65707;52.362;6.588;2023-07-31T02:21:10;100816.69;;;16.54;91.82
76766;BME280;65707;52.362;6.588;2023-07-31T02:23:37;100804.41;;;16.58;91.87
76766;BME280;65707;52.362;6.588;2023-07-31T02:26:04;100809.41;;;16.55;91.96
76766;BME280;65707;52.362;6.588;2023-07-31T02:28:30;100804.81;;;16.62;91.67
76766;BME280;65707;52.362;6.588;2023-07-31T02:30:57;100810.44;;;16.67;91.67
76766;BME280;65707;52.362;6.588;2023-07-31T02:33:25;100804.41;;;16.65;91.86
76766;BME280;65707;52.362;6.588;2023-07-31T02:35:52;100799.16;;;16.70;91.69
76766;BME280;65707;52.362;6.588;2023-07-31T02:38:19;100800.00;;;16.77;91.48
76766;BME280;65707;52.362;6.588;2023-07-31T02:40:45;100799.81;;;16.72;91.56
76766;BME280;65707;52.362;6.588;2023-07-31T02:43:13;100790.00;;;16.77;91.51
76766;BME280;65707;52.362;6.588;2023-07-31T02:45:40;100798.16;;;16.77;91.22
76766;BME280;65707;52.362;6.588;2023-07-31T02:48:07;100797.09;;;16.85;90.76
76766;BME280;65707;52.362;6.588;2023-07-31T02:50:35;100794.38;;;16.72;91.40
76766;BME280;65707;52.362;6.588;2023-07-31T02:53:02;100793.34;;;16.73;91.40
76766;BME280;65707;52.362;6.588;2023-07-31T02:55:28;100787.91;;;16.79;91.18
76766;BME280;65707;52.362;6.588;2023-07-31T02:57:55;100781.69;;;16.79;91.32
76766;BME280;65707;52.362;6.588;2023-07-31T03:00:23;100783.53;;;16.85;91.27
76766;BME280;65707;52.362;6.588;2023-07-31T03:02:50;100787.69;;;16.81;91.59
76766;BME280;65707;52.362;6.588;2023-07-31T03:05:17;100776.44;;;16.84;91.48
76766;BME280;65707;52.362;6.588;2023-07-31T03:07:45;100770.41;;;16.82;91.43
76766;BME280;65707;52.362;6.588;2023-07-31T03:10:12;100780.63;;;16.86;91.85
76766;BME280;65707;52.362;6.588;2023-07-31T03:12:39;100789.16;;;16.83;91.95
76766;BME280;65707;52.362;6.588;2023-07-31T03:15:08;100790.81;;;16.91;91.62
76766;BME280;65707;52.362;6.588;2023-07-31T03:17:35;100788.13;;;16.91;91.84
76766;BME280;65707;52.362;6.588;2023-07-31T03:20:02;100787.69;;;16.94;91.72
76766;BME280;65707;52.362;6.588;2023-07-31T03:22:30;100788.75;;;16.93;92.01
76766;BME280;65707;52.362;6.588;2023-07-31T03:24:58;100781.84;;;16.97;92.01
76766;BME280;65707;52.362;6.588;2023-07-31T03:27:25;100780.59;;;16.93;92.01
76766;BME280;65707;52.362;6.588;2023-07-31T03:29:51;100785.81;;;17.01;92.24
76766;BME280;65707;52.362;6.588;2023-07-31T03:32:18;100782.25;;;17.07;92.15
76766;BME280;65707;52.362;6.588;2023-07-31T03:34:45;100782.84;;;17.16;91.88
76766;BME280;65707;52.362;6.588;2023-07-31T03:37:12;100788.03;;;17.17;91.67
76766;BME280;65707;52.362;6.588;2023-07-31T03:39:39;100786.81;;;17.20;91.66
76766;BME280;65707;52.362;6.588;2023-07-31T03:42:07;100779.47;;;17.20;91.30
76766;BME280;65707;52.362;6.588;2023-07-31T03:44:34;100771.56;;;17.19;91.92
76766;BME280;65707;52.362;6.588;2023-07-31T03:47:00;100777.41;;;17.22;91.97
76766;BME280;65707;52.362;6.588;2023-07-31T03:49:27;100776.94;;;17.38;91.10
76766;BME280;65707;52.362;6.588;2023-07-31T03:51:54;100773.81;;;17.35;90.73
76766;BME280;65707;52.362;6.588;2023-07-31T03:54:21;100779.03;;;17.36;90.59
76766;BME280;65707;52.362;6.588;2023-07-31T03:56:48;100775.72;;;17.34;91.06
76766;BME280;65707;52.362;6.588;2023-07-31T03:59:16;100778.00;;;17.37;90.70
76766;BME280;65707;52.362;6.588;2023-07-31T04:01:42;100773.59;;;17.36;90.64
76766;BME280;65707;52.362;6.588;2023-07-31T04:04:09;100774.84;;;17.40;90.88
76766;BME280;65707;52.362;6.588;2023-07-31T04:06:36;100772.13;;;17.40;90.99
76766;BME280;65707;52.362;6.588;2023-07-31T04:09:03;100770.88;;;17.36;90.72
76766;BME280;65707;52.362;6.588;2023-07-31T04:11:30;100770.44;;;17.39;90.89
76766;BME280;65707;52.362;6.588;2023-07-31T04:13:57;100772.56;;;17.37;91.38
76766;BME280;65707;52.362;6.588;2023-07-31T04:16:25;100772.16;;;17.47;90.78
76766;BME280;65707;52.362;6.588;2023-07-31T04:18:51;100773.38;;;17.51;90.17
76766;BME280;65707;52.362;6.588;2023-07-31T04:21:18;100776.72;;;17.46;90.33
76766;BME280;65707;52.362;6.588;2023-07-31T04:23:45;100766.09;;;17.45;90.54
76766;BME280;65707;52.362;6.588;2023-07-31T04:26:12;100763.16;;;17.53;90.02
76766;BME280;65707;52.362;6.588;2023-07-31T04:28:38;100752.50;;;17.51;89.27
76766;BME280;65707;52.362;6.588;2023-07-31T04:31:05;100759.81;;;17.51;89.46
76766;BME280;65707;52.362;6.588;2023-07-31T04:33:33;100759.16;;;17.42;89.84
76766;BME280;65707;52.362;6.588;2023-07-31T04:36:00;100759.00;;;17.37;90.00
76766;BME280;65707;52.362;6.588;2023-07-31T04:38:27;100757.31;;;17.36;90.43
76766;BME280;65707;52.362;6.588;2023-07-31T04:40:54;100758.16;;;17.43;89.79
76766;BME280;65707;52.362;6.588;2023-07-31T04:43:20;100761.72;;;17.37;89.95
76766;BME280;65707;52.362;6.588;2023-07-31T04:45:48;100762.31;;;17.39;90.06
76766;BME280;65707;52.362;6.588;2023-07-31T04:48:15;100750.25;;;17.35;90.24
76766;BME280;65707;52.362;6.588;2023-07-31T04:50:44;100765.09;;;17.26;90.25
76766;BME280;65707;52.362;6.588;2023-07-31T04:53:10;100751.53;;;17.26;90.29
76766;BME280;65707;52.362;6.588;2023-07-31T04:55:38;100752.53;;;17.32;89.37
76766;BME280;65707;52.362;6.588;2023-07-31T04:58:04;100751.69;;;17.31;90.08
76766;BME280;65707;52.362;6.588;2023-07-31T05:00:31;100742.56;;;17.26;90.54
76766;BME280;65707;52.362;6.588;2023-07-31T05:02:58;100743.16;;;17.34;89.79
76766;BME280;65707;52.362;6.588;2023-07-31T05:05:25;100739.19;;;17.37;89.08
76766;BME280;65707;52.362;6.588;2023-07-31T05:07:53;100742.31;;;17.34;89.17
76766;BME280;65707;52.362;6.588;2023-07-31T05:10:20;100740.22;;;17.36;88.65
76766;BME280;65707;52.362;6.588;2023-07-31T05:12:46;100736.06;;;17.33;89.15
76766;BME280;65707;52.362;6.588;2023-07-31T05:15:13;100723.75;;;17.31;88.67
76766;BME280;65707;52.362;6.588;2023-07-31T05:17:40;100729.41;;;17.29;88.37
76766;BME280;65707;52.362;6.588;2023-07-31T05:20:08;100734.00;;;17.22;89.03
76766;BME280;65707;52.362;6.588;2023-07-31T05:22:35;100739.66;;;17.21;89.47
76766;BME280;65707;52.362;6.588;2023-07-31T05:25:04;100735.63;;;17.30;88.59
76766;BME280;65707;52.362;6.588;2023-07-31T05:27:32;100736.72;;;17.16;88.74
76766;BME280;65707;52.362;6.588;2023-07-31T05:29:59;100737.34;;;17.24;89.18
76766;BME280;65707;52.362;6.588;2023-07-31T05:32:25;100731.09;;;17.17;88.85
76766;BME280;65707;52.362;6.588;2023-07-31T05:34:52;100732.53;;;17.26;88.96
76766;BME280;65707;52.362;6.588;2023-07-31T05:37:19;100733.59;;;17.19;88.54
76766;BME280;65707;52.362;6.588;2023-07-31T05:39:46;100736.31;;;17.19;89.17
76766;BME280;65707;52.362;6.588;2023-07-31T05:42:14;100723.78;;;17.24;87.97
76766;BME280;65707;52.362;6.588;2023-07-31T05:44:41;100731.94;;;17.18;88.27
76766;BME280;65707;52.362;6.588;2023-07-31T05:47:07;100730.88;;;17.25;88.22
76766;BME280;65707;52.362;6.588;2023-07-31T05:49:34;100728.13;;;17.32;87.54
76766;BME280;65707;52.362;6.588;2023-07-31T05:52:01;100725.63;;;17.30;87.86
76766;BME280;65707;52.362;6.588;2023-07-31T05:54:28;100723.91;;;17.42;88.12
76766;BME280;65707;52.362;6.588;2023-07-31T05:56:55;100727.88;;;17.40;87.72
76766;BME280;65707;52.362;6.588;2023-07-31T05:59:23;100718.31;;;17.37;87.72
76766;BME280;65707;52.362;6.588;2023-07-31T06:01:50;100711.41;;;17.41;87.39
76766;BME280;65707;52.362;6.588;2023-07-31T06:04:17;100715.97;;;17.54;86.83
76766;BME280;65707;52.362;6.588;2023-07-31T06:06:44;100715.13;;;17.53;86.49
76766;BME280;65707;52.362;6.588;2023-07-31T06:09:10;100711.81;;;17.51;86.71
76766;BME280;65707;52.362;6.588;2023-07-31T06:11:38;100713.69;;;17.51;86.85
76766;BME280;65707;52.362;6.588;2023-07-31T06:14:04;100719.72;;;17.53;87.41
76766;BME280;65707;52.362;6.588;2023-07-31T06:16:32;100719.13;;;17.44;87.34
76766;BME280;65707;52.362;6.588;2023-07-31T06:18:59;100720.19;;;17.37;87.36
76766;BME280;65707;52.362;6.588;2023-07-31T06:21:26;100714.00;;;17.23;87.80
76766;BME280;65707;52.362;6.588;2023-07-31T06:23:53;100712.16;;;17.11;89.57
76766;BME280;65707;52.362;6.588;2023-07-31T06:26:20;100711.53;;;17.15;89.26
76766;BME280;65707;52.362;6.588;2023-07-31T06:28:46;100709.38;;;17.24;89.53
76766;BME280;65707;52.362;6.588;2023-07-31T06:31:13;100705.44;;;17.26;88.67
76766;BME280;65707;52.362;6.588;2023-07-31T06:33:41;100700.16;;;17.31;87.68
76766;BME280;65707;52.362;6.588;2023-07-31T06:36:08;100698.56;;;17.17;88.21
76766;BME280;65707;52.362;6.588;2023-07-31T06:38:35;100703.38;;;17.15;88.88
76766;BME280;65707;52.362;6.588;2023-07-31T06:41:03;100704.81;;;17.18;89.07
76766;BME280;65707;52.362;6.588;2023-07-31T06:43:30;100707.97;;;17.08;89.12
76766;BME280;65707;52.362;6.588;2023-07-31T06:45:56;100697.56;;;17.12;89.05
76766;BME280;65707;52.362;6.588;2023-07-31T06:48:23;100708.84;;;17.02;90.10
76766;BME280;65707;52.362;6.588;2023-07-31T06:50:52;100699.00;;;17.08;90.15
76766;BME280;65707;52.362;6.588;2023-07-31T06:53:18;100700.28;;;17.05;90.22
76766;BME280;65707;52.362;6.588;2023-07-31T06:55:45;100692.97;;;17.12;90.08
76766;BME280;65707;52.362;6.588;2023-07-31T06:58:13;100687.50;;;17.19;89.28
76766;BME280;65707;52.362;6.588;2023-07-31T07:00:40;100681.44;;;17.23;89.18
76766;BME280;65707;52.362;6.588;2023-07-31T07:03:07;100686.88;;;17.23;89.18
76766;BME280;65707;52.362;6.588;2023-07-31T07:05:33;100681.00;;;17.33;89.03
76766;BME280;65707;52.362;6.588;2023-07-31T07:08:01;100689.31;;;17.31;89.16
76766;BME280;65707;52.362;6.588;2023-07-31T07:10:28;100678.06;;;17.34;89.17
76766;BME280;65707;52.362;6.588;2023-07-31T07:12:55;100670.69;;;17.41;88.72
76766;BME280;65707;52.362;6.588;2023-07-31T07:15:22;100665.28;;;17.41;89.55
76766;BME280;65707;52.362;6.588;2023-07-31T07:17:49;100670.69;;;17.48;88.56
76766;BME280;65707;52.362;6.588;2023-07-31T07:20:16;100669.66;;;17.49;89.19
76766;BME280;65707;52.362;6.588;2023-07-31T07:22:44;100659.19;;;17.52;88.77
76766;BME280;65707;52.362;6.588;2023-07-31T07:25:12;100670.47;;;17.49;88.70
76766;BME280;65707;52.362;6.588;2023-07-31T07:27:39;100654.22;;;17.49;89.57
76766;BME280;65707;52.362;6.588;2023-07-31T07:30:07;100635.44;;;17.48;90.28
76766;BME280;65707;52.362;6.588;2023-07-31T07:32:34;100647.81;;;17.68;89.08
76766;BME280;65707;52.362;6.588;2023-07-31T07:35:01;100648.44;;;17.70;89.14
76766;BME280;65707;52.362;6.588;2023-07-31T07:37:27;100640.34;;;17.64;88.78
76766;BME280;65707;52.362;6.588;2023-07-31T07:39:54;100639.06;;;17.66;88.98
76766;BME280;65707;52.362;6.588;2023-07-31T07:42:24;100642.84;;;17.65;89.44
76766;BME280;65707;52.362;6.588;2023-07-31T07:44:50;100645.56;;;17.65;89.97
76766;BME280;65707;52.362;6.588;2023-07-31T07:47:17;100648.16;;;17.78;89.58
76766;BME280;65707;52.362;6.588;2023-07-31T07:49:44;100634.00;;;17.76;89.54
76766;BME280;65707;52.362;6.588;2023-07-31T07:52:11;100636.94;;;17.75;89.94
76766;BME280;65707;52.362;6.588;2023-07-31T07:54:37;100643.53;;;17.85;89.98
76766;BME280;65707;52.362;6.588;2023-07-31T07:57:04;100628.16;;;17.97;89.60
76766;BME280;65707;52.362;6.588;2023-07-31T07:59:32;100623.75;;;18.03;89.71
76766;BME280;65707;52.362;6.588;2023-07-31T08:01:59;100617.03;;;18.05;89.82
76766;BME280;65707;52.362;6.588;2023-07-31T08:04:26;100618.53;;;18.01;89.60
76766;BME280;65707;52.362;6.588;2023-07-31T08:06:52;100615.59;;;18.03;90.05
76766;BME280;65707;52.362;6.588;2023-07-31T08:09:19;100608.44;;;18.08;90.22
76766;BME280;65707;52.362;6.588;2023-07-31T08:11:46;100617.53;;;18.20;89.85
76766;BME280;65707;52.362;6.588;2023-07-31T08:14:13;100605.44;;;18.16;89.71
76766;BME280;65707;52.362;6.588;2023-07-31T08:16:41;100615.25;;;18.17;90.01
76766;BME280;65707;52.362;6.588;2023-07-31T08:19:08;100611.16;;;18.08;89.51
76766;BME280;65707;52.362;6.588;2023-07-31T08:21:35;100609.84;;;18.17;90.08
76766;BME280;65707;52.362;6.588;2023-07-31T08:24:02;100607.97;;;18.11;89.42
76766;BME280;65707;52.362;6.588;2023-07-31T08:26:28;100607.19;;;18.11;90.45
76766;BME280;65707;52.362;6.588;2023-07-31T08:28:55;100604.22;;;18.12;90.76
76766;BME280;65707;52.362;6.588;2023-07-31T08:31:22;100607.63;;;18.08;90.20
76766;BME280;65707;52.362;6.588;2023-07-31T08:33:50;100604.97;;;18.19;90.48
76766;BME280;65707;52.362;6.588;2023-07-31T08:36:17;100594.19;;;18.13;90.45
76766;BME280;65707;52.362;6.588;2023-07-31T08:38:45;100601.59;;;18.24;89.37
76766;BME280;65707;52.362;6.588;2023-07-31T08:41:12;100600.63;;;18.18;90.07
76766;BME280;65707;52.362;6.588;2023-07-31T08:43:39;100594.97;;;18.20;89.77
76766;BME280;65707;52.362;6.588;2023-07-31T08:46:07;100590.03;;;18.10;90.61
76766;BME280;65707;52.362;6.588;2023-07-31T08:48:35;100599.38;;;18.14;91.01
76766;BME280;65707;52.362;6.588;2023-07-31T08:51:05;100594.78;;;18.15;91.05
76766;BME280;65707;52.362;6.588;2023-07-31T08:53:32;100599.72;;;18.24;91.31
76766;BME280;65707;52.362;6.588;2023-07-31T08:55:59;100594.16;;;18.37;90.80
76766;BME280;65707;52.362;6.588;2023-07-31T08:58:30;100590.81;;;18.35;90.60
76766;BME280;65707;52.362;6.588;2023-07-31T09:01:01;100588.72;;;18.37;89.74
76766;BME280;65707;52.362;6.588;2023-07-31T09:03:33;100591.72;;;18.29;90.17
76766;BME280;65707;52.362;6.588;2023-07-31T09:06:02;100590.94;;;18.22;90.84
76766;BME280;65707;52.362;6.588;2023-07-31T09:08:32;100584.19;;;18.31;90.57
76766;BME280;65707;52.362;6.588;2023-07-31T09:10:59;100589.56;;;18.38;90.28
76766;BME280;65707;52.362;6.588;2023-07-31T09:13:28;100589.00;;;18.29;91.22
76766;BME280;65707;52.362;6.588;2023-07-31T09:15:55;100588.25;;;18.47;90.73
76766;BME280;65707;52.362;6.588;2023-07-31T09:18:22;100583.59;;;18.47;90.71
76766;BME280;65707;52.362;6.588;2023-07-31T09:21:00;100578.94;;;18.55;89.98
76766;BME280;65707;52.362;6.588;2023-07-31T09:23:41;100572.66;;;18.54;90.72
76766;BME280;65707;52.362;6.588;2023-07-31T09:26:08;100584.38;;;18.55;90.33
76766;BME280;65707;52.362;6.588;2023-07-31T09:28:37;100585.13;;;18.62;89.71
76766;BME280;65707;52.362;6.588;2023-07-31T09:31:03;100582.72;;;18.54;90.64
76766;BME280;65707;52.362;6.588;2023-07-31T09:33:30;100576.75;;;18.63;90.01
76766;BME280;65707;52.362;6.588;2023-07-31T09:35:58;100578.03;;;18.61;89.93
76766;BME280;65707;52.362;6.588;2023-07-31T09:38:25;100571.41;;;18.57;89.67
76766;BME280;65707;52.362;6.588;2023-07-31T09:40:53;100570.50;;;18.63;90.30
76766;BME280;65707;52.362;6.588;2023-07-31T09:43:21;100572.59;;;18.61;91.08
76766;BME280;65707;52.362;6.588;2023-07-31T09:45:54;100566.28;;;18.48;90.57
76766;BME280;65707;52.362;6.588;2023-07-31T09:48:23;100573.50;;;18.55;91.36
76766;BME280;65707;52.362;6.588;2023-07-31T09:50:53;100579.56;;;18.57;91.15
76766;BME280;65707;52.362;6.588;2023-07-31T09:53:27;100562.34;;;18.63;91.21
76766;BME280;65707;52.362;6.588;2023-07-31T09:55:58;100559.63;;;18.63;91.03
76766;BME280;65707;52.362;6.588;2023-07-31T09:58:28;100551.31;;;18.58;91.61
76766;BME280;65707;52.362;6.588;2023-07-31T10:00:57;100554.22;;;18.74;90.04
76766;BME280;65707;52.362;6.588;2023-07-31T10:03:25;100559.31;;;18.71;90.45
76766;BME280;65707;52.362;6.588;2023-07-31T10:05:57;100544.72;;;18.83;90.33
76766;BME280;65707;52.362;6.588;2023-07-31T10:08:27;100545.53;;;18.84;89.12
76766;BME280;65707;52.362;6.588;2023-07-31T10:11:00;100547.44;;;18.83;90.40
76766;BME280;65707;52.362;6.588;2023-07-31T10:13:30;100555.53;;;18.90;89.12
76766;BME280;65707;52.362;6.588;2023-07-31T10:15:59;100547.22;;;18.85;89.50
76766;BME280;65707;52.362;6.588;2023-07-31T10:18:27;100553.28;;;18.98;90.33
76766;BME280;65707;52.362;6.588;2023-07-31T10:20:55;100546.59;;;19.12;90.49
76766;BME280;65707;52.362;6.588;2023-07-31T10:23:23;100552.28;;;19.11;89.82
76766;BME280;65707;52.362;6.588;2023-07-31T10:25:53;100556.22;;;19.15;89.38
76766;BME280;65707;52.362;6.588;2023-07-31T10:28:22;100562.13;;;19.12;90.37
76766;BME280;65707;52.362;6.588;2023-07-31T10:30:51;100558.31;;;19.13;88.82
76766;BME280;65707;52.362;6.588;2023-07-31T10:33:18;100546.22;;;19.09;90.57
76766;BME280;65707;52.362;6.588;2023-07-31T10:35:47;100540.78;;;19.09;89.30
76766;BME280;65707;52.362;6.588;2023-07-31T10:38:14;100548.94;;;19.09;89.67
76766;BME280;65707;52.362;6.588;2023-07-31T10:40:41;100551.34;;;19.17;89.66
76766;BME280;65707;52.362;6.588;2023-07-31T10:43:24;100550.34;;;19.00;88.81
76766;BME280;65707;52.362;6.588;2023-07-31T10:45:53;100540.94;;;19.14;89.60
76766;BME280;65707;52.362;6.588;2023-07-31T10:48:20;100543.06;;;19.12;90.35
76766;BME280;65707;52.362;6.588;2023-07-31T10:50:49;100535.59;;;19.37;89.58
76766;BME280;65707;52.362;6.588;2023-07-31T10:53:24;100534.69;;;19.43;88.91
76766;BME280;65707;52.362;6.588;2023-07-31T10:55:52;100532.66;;;19.38;87.82
76766;BME280;65707;52.362;6.588;2023-07-31T10:58:25;100529.25;;;19.25;88.98
76766;BME280;65707;52.362;6.588;2023-07-31T11:00:55;100552.03;;;19.30;88.66
76766;BME280;65707;52.362;6.588;2023-07-31T11:03:25;100534.31;;;19.21;88.93
76766;BME280;65707;52.362;6.588;2023-07-31T11:05:59;100531.50;;;19.16;88.17
76766;BME280;65707;52.362;6.588;2023-07-31T11:08:29;100534.78;;;19.18;89.26
76766;BME280;65707;52.362;6.588;2023-07-31T11:11:08;100530.28;;;19.12;88.23
76766;BME280;65707;52.362;6.588;2023-07-31T11:13:45;100538.81;;;19.16;89.02
76766;BME280;65707;52.362;6.588;2023-07-31T11:16:14;100534.94;;;19.23;89.18
76766;BME280;65707;52.362;6.588;2023-07-31T11:18:43;100542.63;;;19.26;88.82
76766;BME280;65707;52.362;6.588;2023-07-31T11:21:12;100533.94;;;19.36;88.58
76766;BME280;65707;52.362;6.588;2023-07-31T11:23:40;100529.31;;;19.36;88.23
76766;BME280;65707;52.362;6.588;2023-07-31T11:26:07;100529.25;;;19.25;89.09
76766;BME280;65707;52.362;6.588;2023-07-31T11:28:34;100545.28;;;19.33;88.23
76766;BME280;65707;52.362;6.588;2023-07-31T11:31:03;100524.75;;;19.19;88.96
76766;BME280;65707;52.362;6.588;2023-07-31T11:33:31;100528.66;;;19.23;88.70
76766;BME280;65707;52.362;6.588;2023-07-31T11:35:58;100524.88;;;19.24;89.17
76766;BME280;65707;52.362;6.588;2023-07-31T11:38:27;100536.97;;;19.28;89.27
76766;BME280;65707;52.362;6.588;2023-07-31T11:40:56;100527.31;;;19.32;88.41
76766;BME280;65707;52.362;6.588;2023-07-31T11:43:24;100524.22;;;19.28;88.63
76766;BME280;65707;52.362;6.588;2023-07-31T11:45:52;100526.53;;;19.25;88.49
76766;BME280;65707;52.362;6.588;2023-07-31T11:48:23;100528.22;;;19.26;88.87
76766;BME280;65707;52.362;6.588;2023-07-31T11:50:54;100527.59;;;19.24;88.82
76766;BME280;65707;52.362;6.588;2023-07-31T11:53:27;100526.16;;;19.21;88.75
76766;BME280;65707;52.362;6.588;2023-07-31T11:55:58;100539.25;;;19.31;88.64
76766;BME280;65707;52.362;6.588;2023-07-31T11:58:28;100530.50;;;19.29;88.26
76766;BME280;65707;52.362;6.588;2023-07-31T12:00:56;100535.16;;;19.40;88.31
76766;BME280;65707;52.362;6.588;2023-07-31T12:03:26;100526.47;;;19.31;87.52
76766;BME280;65707;52.362;6.588;2023-07-31T12:05:53;100531.22;;;19.36;88.24
76766;BME280;65707;52.362;6.588;2023-07-31T12:08:21;100529.31;;;19.36;88.12
76766;BME280;65707;52.362;6.588;2023-07-31T12:10:50;100522.72;;;19.44;88.49
76766;BME280;65707;52.362;6.588;2023-07-31T12:13:21;100523.91;;;19.48;88.52
76766;BME280;65707;52.362;6.588;2023-07-31T12:15:54;100523.56;;;19.56;87.86
76766;BME280;65707;52.362;6.588;2023-07-31T12:18:23;100512.44;;;19.69;87.66
76766;BME280;65707;52.362;6.588;2023-07-31T12:20:54;100530.69;;;19.80;87.08
76766;BME280;65707;52.362;6.588;2023-07-31T12:23:25;100526.44;;;19.95;86.14
76766;BME280;65707;52.362;6.588;2023-07-31T12:26:00;100517.78;;;19.98;86.61
76766;BME280;65707;52.362;6.588;2023-07-31T12:28:28;100518.13;;;20.02;86.71
76766;BME280;65707;52.362;6.588;2023-07-31T12:30:57;100520.03;;;20.01;85.61
76766;BME280;65707;52.362;6.588;2023-07-31T12:33:30;100522.38;;;20.10;86.01
76766;BME280;65707;52.362;6.588;2023-07-31T12:36:00;100528.56;;;20.05;85.88
76766;BME280;65707;52.362;6.588;2023-07-31T12:38:28;100527.72;;;20.04;85.16
76766;BME280;65707;52.362;6.588;2023-07-31T12:40:55;100524.28;;;19.86;85.85
76766;BME280;65707;52.362;6.588;2023-07-31T12:43:21;100518.47;;;19.82;86.57
76766;BME280;65707;52.362;6.588;2023-07-31T12:45:49;100517.31;;;19.90;87.61
76766;BME280;65707;52.362;6.588;2023-07-31T12:48:15;100506.31;;;19.96;86.52
76766;BME280;65707;52.362;6.588;2023-07-31T12:50:44;100522.41;;;19.98;86.39
76766;BME280;65707;52.362;6.588;2023-07-31T12:53:11;100523.34;;;19.80;88.15
76766;BME280;65707;52.362;6.588;2023-07-31T12:55:37;100519.91;;;19.73;87.07